Time;durP1;ratioP1;P1;durP2;ratioP2;P2;SDS_P1;SDS_P2;PMS_P1;PMS_P2;Temp;Humidity;BMP_temperature;BMP_pressure;BME280_temperature;BME280_humidity;BME280_pressure;Samples;Min_cycle;Max_cycle;Signal;HPM_P1;HPM_P2
2022/08/14 00:00:19;;;;;;;1.25;1.15;;;23.80;47.20;;;;;;6275646;22;20094;-73
2022/08/14 00:02:45;;;;;;;1.10;1.00;;;23.70;47.40;;;;;;6275811;22;20004;-73
2022/08/14 00:05:14;;;;;;;1.30;1.20;;;23.70;47.50;;;;;;6248767;22;20027;-73
2022/08/14 00:07:41;;;;;;;1.00;0.98;;;23.60;47.50;;;;;;6273383;22;20007;-73
2022/08/14 00:10:09;;;;;;;1.20;1.10;;;23.50;47.60;;;;;;6275961;22;20054;-73
2022/08/14 00:12:40;;;;;;;1.10;1.00;;;23.50;47.80;;;;;;6275862;22;20004;-73
2022/08/14 00:15:14;;;;;;;0.93;0.90;;;23.50;47.90;;;;;;6275524;22;20016;-73
2022/08/14 00:17:40;;;;;;;0.88;0.88;;;23.50;48.10;;;;;;6276370;22;20008;-73
2022/08/14 00:20:07;;;;;;;1.10;1.10;;;23.40;48.10;;;;;;6276067;22;20024;-73
2022/08/14 00:22:33;;;;;;;1.02;1.00;;;23.40;48.20;;;;;;6275594;22;20058;-73
2022/08/14 00:25:02;;;;;;;1.10;1.00;;;23.30;48.40;;;;;;6248335;22;20109;-73
2022/08/14 00:27:27;;;;;;;0.90;0.90;;;23.20;48.50;;;;;;6272747;22;20009;-73
2022/08/14 00:29:53;;;;;;;0.90;0.90;;;23.20;48.60;;;;;;6249339;22;20011;-73
2022/08/14 00:32:19;;;;;;;0.90;0.90;;;23.10;49.30;;;;;;6275637;22;20075;-73
2022/08/14 00:34:45;;;;;;;0.82;0.82;;;23.00;48.80;;;;;;6276161;22;20000;-73
2022/08/14 00:37:10;;;;;;;0.93;0.93;;;23.00;49.00;;;;;;6275761;22;20057;-73
2022/08/14 00:39:36;;;;;;;0.80;0.80;;;23.00;49.00;;;;;;6275778;22;20011;-73
2022/08/14 00:42:03;;;;;;;0.70;0.70;;;23.00;49.20;;;;;;6275525;22;20130;-73
2022/08/14 00:44:29;;;;;;;1.10;1.00;;;22.80;49.20;;;;;;6272331;22;20451;-73
2022/08/14 00:46:55;;;;;;;1.00;1.00;;;22.80;49.30;;;;;;6276054;22;20086;-73
2022/08/14 00:49:21;;;;;;;0.90;0.90;;;22.70;49.40;;;;;;6275761;22;20062;-73
2022/08/14 00:51:47;;;;;;;0.80;0.80;;;22.80;49.50;;;;;;6275570;22;20012;-73
2022/08/14 00:54:14;;;;;;;1.20;1.10;;;22.80;49.60;;;;;;6275774;22;20014;-73
2022/08/14 00:56:40;;;;;;;0.80;0.80;;;22.70;49.70;;;;;;6275356;22;20082;-73
2022/08/14 00:59:08;;;;;;;0.93;0.90;;;22.70;49.80;;;;;;6276089;22;20403;-73
2022/08/14 01:01:35;;;;;;;1.10;0.98;;;22.60;49.90;;;;;;6276379;22;20080;-73
2022/08/14 01:04:02;;;;;;;0.82;0.82;;;22.50;50.00;;;;;;6242784;22;20022;-74
2022/08/14 01:06:30;;;;;;;1.10;0.90;;;22.50;50.10;;;;;;6276099;22;20014;-74
2022/08/14 01:08:58;;;;;;;1.20;1.10;;;22.50;50.20;;;;;;6275868;22;20348;-73
2022/08/14 01:11:25;;;;;;;1.60;1.33;;;22.40;50.30;;;;;;6276007;22;20011;-74
2022/08/14 01:13:53;;;;;;;1.08;1.00;;;22.40;50.50;;;;;;6248334;22;20012;-74
2022/08/14 01:16:19;;;;;;;1.10;1.00;;;22.40;50.60;;;;;;6275550;22;20050;-74
2022/08/14 01:21:35;;;;;;;1.08;1.00;;;22.30;50.70;;;;;;6252872;22;20020;-72
2022/08/14 01:24:02;;;;;;;1.08;0.98;;;22.30;50.80;;;;;;6249126;22;20011;-73
2022/08/14 01:26:29;;;;;;;0.98;0.93;;;22.30;50.90;;;;;;6276034;22;20032;-73
2022/08/14 01:28:58;;;;;;;0.98;0.95;;;22.30;50.90;;;;;;6275561;22;20008;-73
2022/08/14 01:31:26;;;;;;;0.90;0.90;;;22.20;50.90;;;;;;6275603;22;20089;-73
2022/08/14 01:33:56;;;;;;;1.15;1.05;;;22.20;51.10;;;;;;6245823;22;20015;-73
2022/08/14 01:36:24;;;;;;;1.05;1.02;;;22.10;51.20;;;;;;6243798;22;20015;-73
2022/08/14 01:38:52;;;;;;;1.63;1.10;;;22.10;51.20;;;;;;6272360;22;20015;-73
2022/08/14 01:41:20;;;;;;;1.10;1.00;;;22.10;51.30;;;;;;6275421;22;20514;-73
2022/08/14 01:43:50;;;;;;;0.98;0.98;;;22.10;51.40;;;;;;6275941;22;20019;-73
2022/08/14 01:46:22;;;;;;;1.35;1.00;;;22.10;51.50;;;;;;6275199;22;20007;-73
2022/08/14 01:48:50;;;;;;;1.25;1.00;;;22.00;51.50;;;;;;6249423;22;20019;-73
2022/08/14 01:51:21;;;;;;;1.20;1.10;;;22.00;51.60;;;;;;6275222;22;20012;-73
2022/08/14 01:53:53;;;;;;;1.38;1.27;;;22.00;51.70;;;;;;6276086;22;20042;-73
2022/08/14 01:56:20;;;;;;;1.50;1.15;;;22.00;51.80;;;;;;6275204;22;20054;-73
2022/08/14 01:58:48;;;;;;;1.20;0.98;;;21.90;51.80;;;;;;6248314;22;20011;-73
2022/08/14 02:01:16;;;;;;;1.10;1.02;;;21.90;52.00;;;;;;6275575;22;20010;-73
2022/08/14 02:03:42;;;;;;;1.10;1.00;;;21.80;51.90;;;;;;6275010;22;20020;-73
2022/08/14 02:06:10;;;;;;;1.10;1.00;;;21.90;52.00;;;;;;6275250;22;20089;-73
2022/08/14 02:08:37;;;;;;;1.42;1.20;;;21.90;52.10;;;;;;6276013;22;20018;-73
2022/08/14 02:13:50;;;;;;;1.13;1.02;;;21.90;52.30;;;;;;6275141;22;20462;-73
2022/08/14 02:16:18;;;;;;;0.90;0.90;;;21.90;52.40;;;;;;6247875;22;20027;-73
2022/08/14 02:18:45;;;;;;;1.13;1.02;;;21.80;52.30;;;;;;6275278;22;20007;-73
2022/08/14 02:21:13;;;;;;;0.93;0.90;;;21.80;52.40;;;;;;6275404;22;20037;-73
2022/08/14 02:23:39;;;;;;;1.17;1.08;;;21.80;52.50;;;;;;6275836;22;20019;-73
2022/08/14 02:26:16;;;;;;;1.20;1.10;;;21.80;52.60;;;;;;6248101;22;20065;-74
2022/08/14 02:28:42;;;;;;;1.23;1.00;;;21.80;52.70;;;;;;6272432;22;20003;-73
2022/08/14 02:31:09;;;;;;;0.90;0.90;;;21.80;52.70;;;;;;6275877;22;20049;-73
2022/08/14 02:33:36;;;;;;;0.95;0.93;;;21.70;52.80;;;;;;6275904;22;20004;-73
2022/08/14 02:36:03;;;;;;;1.00;1.00;;;21.80;52.90;;;;;;6274953;22;20008;-73
2022/08/14 02:38:30;;;;;;;1.10;1.00;;;21.80;53.00;;;;;;6248517;22;20038;-73
2022/08/14 02:40:57;;;;;;;1.08;0.98;;;21.70;53.00;;;;;;6248823;22;20008;-73
2022/08/14 02:43:23;;;;;;;1.48;1.13;;;21.70;53.10;;;;;;6248141;22;20003;-73
2022/08/14 02:45:48;;;;;;;1.10;1.00;;;21.70;53.20;;;;;;6274896;22;20011;-73
2022/08/14 02:48:14;;;;;;;0.90;0.90;;;21.60;53.90;;;;;;6275315;22;20035;-73
2022/08/14 02:50:41;;;;;;;1.20;1.10;;;21.60;53.40;;;;;;6275501;22;20424;-73
2022/08/14 02:53:08;;;;;;;0.80;0.80;;;21.60;53.60;;;;;;6248347;22;20023;-73
2022/08/14 02:55:34;;;;;;;0.95;0.88;;;21.50;53.70;;;;;;6248000;22;20015;-73
2022/08/14 02:58:01;;;;;;;1.00;1.00;;;21.50;53.70;;;;;;6274741;22;20003;-73
2022/08/14 03:00:27;;;;;;;1.15;1.05;;;21.40;53.90;;;;;;6275163;22;20032;-73
2022/08/14 03:02:53;;;;;;;1.00;1.00;;;21.40;53.90;;;;;;6248662;22;20008;-73
2022/08/14 03:05:19;;;;;;;1.10;1.00;;;21.50;54.00;;;;;;6274693;22;20372;-73
2022/08/14 03:07:45;;;;;;;1.13;1.02;;;21.50;54.10;;;;;;6275667;22;20008;-73
2022/08/14 03:10:10;;;;;;;1.63;1.10;;;21.40;54.10;;;;;;6274096;22;20012;-73
2022/08/14 03:12:36;;;;;;;1.15;1.05;;;21.40;54.10;;;;;;6274795;22;20034;-73
2022/08/14 03:15:12;;;;;;;1.30;1.05;;;21.40;54.20;;;;;;6248030;22;20358;-73
2022/08/14 03:17:39;;;;;;;1.05;0.95;;;21.40;54.30;;;;;;6246410;22;20012;-73
2022/08/14 03:20:06;;;;;;;1.52;1.20;;;21.30;54.40;;;;;;6275214;22;20018;-73
2022/08/14 03:22:32;;;;;;;1.90;1.20;;;21.30;54.40;;;;;;6275050;22;20022;-73
2022/08/14 03:25:01;;;;;;;1.20;1.10;;;21.20;54.50;;;;;;6247724;22;20019;-73
2022/08/14 03:27:30;;;;;;;1.17;1.08;;;21.20;54.60;;;;;;6274485;22;20332;-73
2022/08/14 03:29:55;;;;;;;1.20;1.10;;;21.20;54.60;;;;;;6223073;22;20058;-73
2022/08/14 03:32:23;;;;;;;1.35;1.25;;;21.30;54.80;;;;;;6275070;22;20043;-73
2022/08/14 03:34:49;;;;;;;1.30;1.20;;;21.20;54.80;;;;;;6274853;22;20015;-73
2022/08/14 03:37:15;;;;;;;1.33;1.20;;;21.20;55.00;;;;;;6274648;22;20027;-73
2022/08/14 03:39:41;;;;;;;1.05;1.00;;;21.20;55.60;;;;;;6247931;22;20095;-73
2022/08/14 03:42:06;;;;;;;1.30;1.20;;;21.20;55.10;;;;;;6274547;22;20035;-73
2022/08/14 03:44:33;;;;;;;1.27;1.15;;;21.10;55.10;;;;;;6272046;22;20015;-73
2022/08/14 03:46:58;;;;;;;1.10;1.00;;;21.10;55.20;;;;;;6274719;22;20015;-73
2022/08/14 03:49:24;;;;;;;1.20;1.10;;;21.10;55.30;;;;;;6274576;22;20012;-73
2022/08/14 03:51:50;;;;;;;1.35;1.25;;;21.10;55.40;;;;;;6274593;22;20031;-73
2022/08/14 03:54:16;;;;;;;1.30;1.20;;;21.00;55.40;;;;;;6247375;22;20008;-73
2022/08/14 03:56:43;;;;;;;1.42;1.15;;;21.00;55.40;;;;;;6274398;22;20008;-73
2022/08/14 03:59:12;;;;;;;1.20;1.10;;;21.00;55.60;;;;;;6274321;22;20018;-73
2022/08/14 04:01:39;;;;;;;1.50;1.10;;;21.00;56.20;;;;;;6248354;22;20011;-73
2022/08/14 04:04:06;;;;;;;2.53;1.38;;;21.00;55.70;;;;;;6260261;22;20019;-73
2022/08/14 04:06:33;;;;;;;1.25;1.10;;;21.00;55.80;;;;;;6274450;22;20018;-73
2022/08/14 04:08:59;;;;;;;1.48;1.30;;;21.00;55.90;;;;;;6247214;22;20581;-73
2022/08/14 04:11:25;;;;;;;1.02;1.00;;;20.90;55.90;;;;;;6274367;22;20010;-74
2022/08/14 04:13:51;;;;;;;1.33;1.23;;;20.80;56.00;;;;;;6274607;22;20007;-73
2022/08/14 04:16:21;;;;;;;1.30;1.20;;;20.90;56.10;;;;;;6248125;22;20442;-73
2022/08/14 04:18:51;;;;;;;1.10;1.00;;;20.80;56.20;;;;;;6274738;22;20012;-73
2022/08/14 04:21:18;;;;;;;1.10;1.00;;;20.80;56.30;;;;;;6275495;22;20057;-73
2022/08/14 04:23:46;;;;;;;1.10;1.00;;;20.80;56.30;;;;;;6276324;22;20023;-73
2022/08/14 04:26:15;;;;;;;1.15;1.05;;;20.80;56.40;;;;;;6275550;22;20004;-73
2022/08/14 04:28:42;;;;;;;1.40;1.30;;;20.80;56.50;;;;;;6276024;22;20011;-73
2022/08/14 04:31:08;;;;;;;1.20;1.10;;;20.70;56.50;;;;;;6248768;22;20091;-73
2022/08/14 04:33:35;;;;;;;1.75;1.15;;;20.70;56.50;;;;;;6275709;22;20003;-73
2022/08/14 04:36:01;;;;;;;1.30;1.20;;;20.70;56.60;;;;;;6276781;22;20007;-73
2022/08/14 04:43:43;;;;;;;1.58;1.30;;;20.70;56.80;;;;;;6275662;22;20094;-73
2022/08/14 04:46:13;;;;;;;1.25;1.13;;;20.70;56.80;;;;;;6275813;22;20039;-73
2022/08/14 04:48:40;;;;;;;0.93;0.90;;;20.70;56.90;;;;;;6275920;22;20039;-73
2022/08/14 04:51:09;;;;;;;1.20;1.10;;;20.70;56.90;;;;;;6275874;22;20083;-73
2022/08/14 04:53:41;;;;;;;1.30;1.20;;;20.70;57.00;;;;;;6276175;22;20086;-73
2022/08/14 04:56:08;;;;;;;1.30;1.20;;;20.70;57.00;;;;;;6276667;22;20387;-73
2022/08/14 04:58:34;;;;;;;1.20;1.10;;;20.70;57.10;;;;;;6275863;22;20015;-73
2022/08/14 05:01:05;;;;;;;1.42;1.20;;;20.70;57.20;;;;;;6276263;22;20011;-73
2022/08/14 05:03:32;;;;;;;1.27;1.00;;;20.60;57.20;;;;;;6249067;22;20012;-73
2022/08/14 05:05:59;;;;;;;1.10;1.02;;;20.70;57.20;;;;;;6275874;22;20052;-73
2022/08/14 05:08:26;;;;;;;1.40;1.30;;;20.70;57.30;;;;;;6217223;22;20375;-73
2022/08/14 05:10:54;;;;;;;1.20;1.10;;;20.70;57.30;;;;;;6276511;22;20085;-73
2022/08/14 05:13:22;;;;;;;2.22;1.52;;;20.60;57.30;;;;;;6249368;22;20008;-74
2022/08/14 05:15:51;;;;;;;1.30;1.20;;;20.70;57.40;;;;;;6276444;22;20066;-73
2022/08/14 05:18:19;;;;;;;1.23;1.13;;;20.70;57.40;;;;;;6249162;22;20007;-73
2022/08/14 05:20:49;;;;;;;1.40;1.30;;;20.70;57.50;;;;;;6276278;22;20014;-73
2022/08/14 05:23:17;;;;;;;1.30;1.20;;;20.70;57.40;;;;;;6273578;22;20011;-73
2022/08/14 05:25:45;;;;;;;1.20;1.10;;;20.70;57.50;;;;;;6273025;22;20037;-73
2022/08/14 05:28:17;;;;;;;1.42;1.10;;;20.70;57.40;;;;;;6249002;22;20008;-73
2022/08/14 05:30:46;;;;;;;1.30;1.20;;;20.80;57.50;;;;;;6250295;22;20142;-73
2022/08/14 05:33:13;;;;;;;1.65;1.40;;;20.80;57.50;;;;;;6275406;22;20003;-73
2022/08/14 05:35:39;;;;;;;1.25;1.10;;;20.80;57.50;;;;;;6275816;22;20042;-73
2022/08/14 05:38:08;;;;;;;1.30;1.20;;;20.80;57.50;;;;;;6275703;22;20003;-73
2022/08/14 05:40:34;;;;;;;1.60;1.42;;;20.80;57.50;;;;;;6276466;22;20008;-74
2022/08/14 05:43:01;;;;;;;1.77;1.38;;;20.80;57.50;;;;;;6276470;22;20037;-73
2022/08/14 05:45:26;;;;;;;3.25;1.80;;;20.90;57.60;;;;;;6223592;22;20011;-73
2022/08/14 05:47:52;;;;;;;1.38;1.20;;;20.90;57.60;;;;;;6249625;22;20034;-73
2022/08/14 05:50:18;;;;;;;1.23;1.13;;;21.00;57.70;;;;;;6275519;22;20061;-73
2022/08/14 05:52:44;;;;;;;1.58;1.33;;;20.90;57.60;;;;;;6275572;22;20007;-74
2022/08/14 05:55:10;;;;;;;1.30;1.20;;;21.00;57.60;;;;;;6198312;22;20016;-74
2022/08/14 05:57:59;;;;;;;1.35;1.25;;;21.00;57.60;;;;;;6275494;22;20420;-73
2022/08/14 06:00:28;;;;;;;1.60;1.30;;;21.10;57.70;;;;;;6275243;22;20018;-73
2022/08/14 06:02:55;;;;;;;1.58;1.40;;;21.10;57.70;;;;;;6275730;22;20004;-74
2022/08/14 06:05:22;;;;;;;1.27;1.17;;;21.20;57.70;;;;;;6275683;22;20019;-74
2022/08/14 06:07:48;;;;;;;1.27;1.17;;;21.20;57.60;;;;;;6246028;22;20062;-74
2022/08/14 06:10:13;;;;;;;1.55;1.38;;;21.20;57.60;;;;;;6248081;22;20016;-73
2022/08/14 06:12:39;;;;;;;1.30;1.20;;;21.20;57.60;;;;;;6275724;22;20008;-74
2022/08/14 06:15:07;;;;;;;1.30;1.20;;;21.30;57.70;;;;;;6275655;22;20038;-74
2022/08/14 06:17:43;;;;;;;1.90;1.48;;;21.30;57.60;;;;;;6272427;22;20090;-74
2022/08/14 06:20:09;;;;;;;1.50;1.30;;;21.30;57.60;;;;;;6273763;22;20015;-74
2022/08/14 06:22:34;;;;;;;1.35;1.25;;;21.40;57.60;;;;;;6275794;22;20095;-74
2022/08/14 06:25:02;;;;;;;1.13;1.00;;;21.40;57.60;;;;;;6275676;22;20035;-74
2022/08/14 06:27:33;;;;;;;1.50;1.23;;;21.40;57.50;;;;;;6275869;22;20069;-74
2022/08/14 06:29:59;;;;;;;1.13;1.02;;;21.50;57.60;;;;;;6275472;22;20499;-73
2022/08/14 06:32:25;;;;;;;1.33;1.20;;;21.50;57.50;;;;;;6248335;22;20043;-74
2022/08/14 06:34:50;;;;;;;1.30;1.17;;;21.60;57.50;;;;;;6249030;22;20432;-73
2022/08/14 06:37:17;;;;;;;1.58;1.30;;;21.60;57.50;;;;;;6248463;22;20433;-73
2022/08/14 06:39:43;;;;;;;1.60;1.20;;;21.70;57.50;;;;;;6274957;22;20035;-74
2022/08/14 06:42:08;;;;;;;2.00;1.70;;;21.80;57.50;;;;;;6248720;22;20014;-73
2022/08/14 06:44:34;;;;;;;1.75;1.35;;;21.80;57.50;;;;;;6244915;22;20012;-74
2022/08/14 06:47:01;;;;;;;3.75;1.55;;;21.80;57.40;;;;;;6275219;22;20022;-74
2022/08/14 06:49:27;;;;;;;1.83;1.40;;;21.80;57.30;;;;;;6275036;22;20087;-74
2022/08/14 06:51:53;;;;;;;1.73;1.38;;;21.90;57.40;;;;;;6275322;22;20031;-74
2022/08/14 06:54:19;;;;;;;1.27;1.17;;;21.90;57.40;;;;;;6247899;22;20018;-74
2022/08/14 06:56:44;;;;;;;1.38;1.27;;;21.90;57.40;;;;;;6248299;22;20054;-74
2022/08/14 06:59:14;;;;;;;1.42;1.33;;;22.10;57.40;;;;;;6248150;22;20332;-74
2022/08/14 07:07:02;;;;;;;1.33;1.23;;;22.10;57.30;;;;;;6275074;22;20077;-74
2022/08/14 07:09:28;;;;;;;2.22;1.58;;;22.20;57.30;;;;;;6275034;22;20375;-74
2022/08/14 07:11:54;;;;;;;1.67;1.40;;;22.20;57.30;;;;;;6248686;22;20095;-74
2022/08/14 07:14:20;;;;;;;1.48;1.20;;;22.30;57.20;;;;;;6247716;22;20033;-74
2022/08/14 07:16:45;;;;;;;1.33;1.20;;;22.30;57.10;;;;;;6247987;22;20004;-74
2022/08/14 07:19:11;;;;;;;1.30;1.20;;;22.40;57.10;;;;;;6247923;22;20089;-74
2022/08/14 07:21:37;;;;;;;1.30;1.20;;;22.40;57.10;;;;;;6247822;22;20022;-74
2022/08/14 07:24:03;;;;;;;1.35;1.23;;;22.50;57.10;;;;;;6224029;22;20020;-74
2022/08/14 07:26:29;;;;;;;3.70;1.50;;;22.50;57.10;;;;;;6249021;22;20434;-75
2022/08/14 07:28:55;;;;;;;2.25;1.50;;;22.60;57.10;;;;;;6275011;22;20103;-74
2022/08/14 07:31:21;;;;;;;1.58;1.48;;;22.60;57.10;;;;;;6275190;22;20015;-74
2022/08/14 07:33:47;;;;;;;1.45;1.30;;;22.70;57.10;;;;;;6275287;22;20004;-74
2022/08/14 07:36:15;;;;;;;1.83;1.60;;;22.70;57.00;;;;;;6275175;22;20034;-72
2022/08/14 07:38:42;;;;;;;1.42;1.20;;;22.80;57.00;;;;;;6272494;22;20008;-74
2022/08/14 07:41:10;;;;;;;1.33;1.23;;;22.80;57.00;;;;;;6248884;22;20412;-74
2022/08/14 07:43:36;;;;;;;1.65;1.42;;;22.90;57.00;;;;;;6275243;22;20015;-74
2022/08/14 07:46:06;;;;;;;1.65;1.50;;;23.00;56.90;;;;;;6247694;22;20033;-73
2022/08/14 07:48:39;;;;;;;1.40;1.20;;;23.10;56.80;;;;;;6247967;22;20014;-74
2022/08/14 07:51:06;;;;;;;1.50;1.30;;;23.20;56.80;;;;;;6275309;22;20012;-74
2022/08/14 07:53:32;;;;;;;1.55;1.45;;;23.30;56.60;;;;;;6222661;22;20431;-74
2022/08/14 07:55:59;;;;;;;1.88;1.55;;;23.40;56.50;;;;;;6248922;22;20011;-74
2022/08/14 07:58:24;;;;;;;1.70;1.58;;;23.60;56.30;;;;;;6276428;22;20008;-74
2022/08/14 08:00:54;;;;;;;1.20;1.10;;;23.70;56.10;;;;;;6276285;22;20347;-73
2022/08/14 08:03:21;;;;;;;1.60;1.42;;;23.90;55.90;;;;;;6276161;22;20018;-74
2022/08/14 08:05:48;;;;;;;1.98;1.60;;;24.20;55.70;;;;;;6276413;22;20086;-75
2022/08/14 08:08:16;;;;;;;2.17;1.70;;;24.40;55.40;;;;;;6273251;22;20090;-73
2022/08/14 08:10:42;;;;;;;1.50;1.40;;;24.50;55.20;;;;;;6275844;22;20012;-75
2022/08/14 08:13:15;;;;;;;1.45;1.35;;;24.70;55.00;;;;;;6276037;22;20004;-73
2022/08/14 08:15:43;;;;;;;2.55;1.40;;;25.00;54.70;;;;;;6223739;22;20010;-73
2022/08/14 08:18:11;;;;;;;1.42;1.30;;;25.20;54.50;;;;;;6276501;22;20038;-74
2022/08/14 08:20:41;;;;;;;1.48;1.17;;;25.40;54.30;;;;;;6248953;22;20019;-74
2022/08/14 08:23:08;;;;;;;1.30;1.20;;;25.60;54.10;;;;;;6249195;22;20014;-73
2022/08/14 08:25:37;;;;;;;1.85;1.48;;;25.90;54.00;;;;;;6276452;22;20014;-74
2022/08/14 08:28:07;;;;;;;1.77;1.58;;;26.00;53.80;;;;;;6246773;22;20018;-74
2022/08/14 08:30:36;;;;;;;2.10;1.60;;;26.30;53.70;;;;;;6246440;22;20011;-74
2022/08/14 08:33:04;;;;;;;2.28;1.50;;;26.40;53.50;;;;;;6273055;22;20003;-74
2022/08/14 08:35:35;;;;;;;1.98;1.50;;;26.60;53.40;;;;;;6276833;22;20012;-74
2022/08/14 08:38:03;;;;;;;1.45;1.35;;;26.80;53.30;;;;;;6275869;22;20003;-74
2022/08/14 08:40:34;;;;;;;1.70;1.40;;;27.00;53.10;;;;;;6249208;22;20031;-74
2022/08/14 08:43:02;;;;;;;1.35;1.20;;;27.30;53.00;;;;;;6276724;22;20007;-74
2022/08/14 08:45:28;;;;;;;1.60;1.30;;;27.40;52.90;;;;;;6276052;22;20008;-74
2022/08/14 08:47:54;;;;;;;1.52;1.33;;;27.60;52.70;;;;;;6249270;22;20011;-74
2022/08/14 08:50:29;;;;;;;1.38;1.27;;;27.70;52.60;;;;;;6248896;22;20077;-75
2022/08/14 08:52:58;;;;;;;1.35;1.20;;;27.90;52.50;;;;;;6274658;22;20033;-74
2022/08/14 08:55:31;;;;;;;1.23;1.13;;;28.10;52.40;;;;;;6275587;22;20428;-74
2022/08/14 08:57:59;;;;;;;1.25;1.15;;;28.30;52.40;;;;;;6275905;22;20003;-74
2022/08/14 09:00:28;;;;;;;1.35;1.25;;;28.40;52.20;;;;;;6276364;22;20039;-73
2022/08/14 09:02:58;;;;;;;1.45;1.35;;;28.60;52.20;;;;;;6276262;22;20012;-73
2022/08/14 09:05:24;;;;;;;1.70;1.23;;;28.70;52.10;;;;;;6273913;22;20018;-73
2022/08/14 09:07:51;;;;;;;2.35;1.40;;;28.80;52.10;;;;;;6248799;22;20082;-74
2022/08/14 09:10:17;;;;;;;1.23;1.13;;;28.90;52.00;;;;;;6275706;22;20018;-74
2022/08/14 09:12:43;;;;;;;1.67;1.30;;;29.10;51.90;;;;;;6275995;22;20015;-73
2022/08/14 09:15:09;;;;;;;1.45;1.30;;;29.20;51.80;;;;;;6248949;22;20007;-74
2022/08/14 09:17:35;;;;;;;1.90;1.48;;;29.20;51.70;;;;;;6249092;22;20062;-74
2022/08/14 09:20:02;;;;;;;1.42;1.33;;;29.30;52.40;;;;;;6276449;22;20045;-74
2022/08/14 09:22:29;;;;;;;1.42;1.33;;;29.40;51.70;;;;;;6275815;22;20012;-73
2022/08/14 09:24:55;;;;;;;1.38;1.27;;;29.50;51.60;;;;;;6223627;22;20012;-74
2022/08/14 09:27:24;;;;;;;1.42;1.33;;;29.60;51.40;;;;;;6275656;22;20003;-73
2022/08/14 09:29:49;;;;;;;2.13;1.50;;;29.70;51.40;;;;;;6275781;22;20007;-73
2022/08/14 09:32:26;;;;;;;1.50;1.40;;;29.70;51.30;;;;;;6275880;22;20011;-73
2022/08/14 09:35:12;;;;;;;1.60;1.50;;;29.90;51.20;;;;;;6248622;22;20008;-74
2022/08/14 09:38:11;;;;;;;2.03;1.50;;;29.90;51.10;;;;;;6272535;22;20012;-74
2022/08/14 09:40:49;;;;;;;1.45;1.35;;;30.00;51.00;;;;;;6275176;22;20099;-74
2022/08/14 09:43:35;;;;;;;1.50;1.40;;;30.20;51.00;;;;;;6247028;22;20012;-74
2022/08/14 09:46:06;;;;;;;1.55;1.45;;;30.20;50.80;;;;;;6274027;22;20078;-74
2022/08/14 09:48:34;;;;;;;1.30;1.20;;;30.30;50.70;;;;;;6275414;22;20328;-74
2022/08/14 09:51:00;;;;;;;1.20;1.10;;;30.40;50.60;;;;;;6275812;22;20016;-73
2022/08/14 09:53:47;;;;;;;1.33;1.02;;;30.40;50.50;;;;;;6276131;22;20004;-74
2022/08/14 09:56:13;;;;;;;1.50;1.40;;;30.60;50.40;;;;;;6222139;22;20034;-74
2022/08/14 09:58:42;;;;;;;1.40;1.30;;;30.60;50.20;;;;;;6248972;22;20014;-73
2022/08/14 10:01:11;;;;;;;1.48;1.38;;;30.70;50.00;;;;;;6275777;22;20082;-73
2022/08/14 10:03:46;;;;;;;1.40;1.30;;;30.80;50.00;;;;;;6249848;22;20011;-73
2022/08/14 10:06:16;;;;;;;1.40;1.30;;;30.90;49.80;;;;;;6272522;22;20003;-73
2022/08/14 10:08:46;;;;;;;1.42;1.33;;;31.00;49.80;;;;;;6275412;22;20007;-73
2022/08/14 10:11:16;;;;;;;1.30;1.20;;;31.10;49.70;;;;;;6198614;22;20012;-73
2022/08/14 10:13:42;;;;;;;1.40;1.30;;;31.10;49.60;;;;;;6248313;22;20395;-73
2022/08/14 10:16:08;;;;;;;1.40;1.30;;;31.20;49.40;;;;;;6275504;22;20003;-73
2022/08/14 10:18:34;;;;;;;1.67;1.40;;;31.10;49.90;;;;;;6275069;22;20015;-73
2022/08/14 10:21:01;;;;;;;1.45;1.35;;;31.20;49.20;;;;;;6275341;22;20086;-73
2022/08/14 10:23:48;;;;;;;1.77;1.40;;;31.30;49.10;;;;;;6223881;22;20014;-73
2022/08/14 10:26:16;;;;;;;1.25;1.17;;;31.30;49.00;;;;;;6242992;22;20059;-73
2022/08/14 10:28:48;;;;;;;2.42;1.58;;;31.30;48.80;;;;;;6275594;22;20085;-72
2022/08/14 10:31:20;;;;;;;1.55;1.45;;;31.30;48.80;;;;;;6272694;22;20017;-74
2022/08/14 10:34:05;;;;;;;1.60;1.35;;;31.30;48.80;;;;;;6246207;22;20007;-74
2022/08/14 10:36:36;;;;;;;1.42;1.20;;;31.30;49.30;;;;;;6272751;22;20491;-73
2022/08/14 10:39:07;;;;;;;2.10;1.70;;;31.40;48.60;;;;;;6273149;22;20008;-73
2022/08/14 10:41:40;;;;;;;1.55;1.45;;;31.40;48.40;;;;;;6272967;22;20102;-74
2022/08/14 10:44:09;;;;;;;1.40;1.30;;;31.40;48.40;;;;;;6273528;22;20008;-73
2022/08/14 10:46:41;;;;;;;1.30;1.20;;;31.40;48.30;;;;;;6275498;22;20012;-74
2022/08/14 10:49:19;;;;;;;1.73;1.40;;;31.40;48.20;;;;;;6275288;22;20047;-74
2022/08/14 10:52:05;;;;;;;1.40;1.30;;;31.40;48.10;;;;;;6245683;22;20378;-74
2022/08/14 10:54:39;;;;;;;2.42;1.40;;;31.30;47.90;;;;;;6272528;22;20015;-74
2022/08/14 10:57:24;;;;;;;1.23;1.20;;;31.30;47.90;;;;;;6273666;22;20023;-74
2022/08/14 10:59:54;;;;;;;1.10;1.10;;;31.40;47.90;;;;;;6273358;22;20057;-75
2022/08/14 11:02:28;;;;;;;1.38;1.27;;;31.40;47.80;;;;;;6246806;22;20023;-74
2022/08/14 11:04:59;;;;;;;1.73;1.50;;;31.40;47.70;;;;;;6275151;22;20019;-74
2022/08/14 11:07:27;;;;;;;1.42;1.27;;;31.40;47.60;;;;;;6275073;22;20003;-74
2022/08/14 11:09:56;;;;;;;1.13;1.10;;;31.50;47.50;;;;;;6275420;22;20015;-75
2022/08/14 11:12:24;;;;;;;1.20;1.10;;;31.60;47.40;;;;;;6275591;22;20014;-75
2022/08/14 11:14:59;;;;;;;1.25;1.15;;;31.70;47.10;;;;;;6220416;22;20337;-75
2022/08/14 11:17:27;;;;;;;1.50;1.35;;;31.80;46.90;;;;;;6273497;22;20005;-74
2022/08/14 11:19:58;;;;;;;1.30;1.20;;;31.90;46.70;;;;;;6248494;22;20012;-73
2022/08/14 11:22:31;;;;;;;1.30;1.23;;;31.80;46.60;;;;;;6273606;22;20012;-75
2022/08/14 11:25:08;;;;;;;1.45;1.30;;;31.90;46.50;;;;;;6248909;22;20019;-75
2022/08/14 11:27:34;;;;;;;1.30;1.20;;;31.80;46.40;;;;;;6248196;22;20014;-75
2022/08/14 11:30:05;;;;;;;1.20;1.10;;;31.90;46.40;;;;;;6247890;22;20046;-75
2022/08/14 11:32:31;;;;;;;1.20;1.10;;;32.00;46.20;;;;;;6249109;22;20053;-75
2022/08/14 11:35:01;;;;;;;1.48;1.20;;;32.00;46.10;;;;;;6248979;22;20011;-73
2022/08/14 11:37:28;;;;;;;1.25;1.17;;;32.00;46.10;;;;;;6276366;22;20428;-73
2022/08/14 11:39:54;;;;;;;1.13;1.08;;;32.00;46.00;;;;;;6276451;22;20009;-74
2022/08/14 11:42:23;;;;;;;1.27;1.17;;;32.10;46.00;;;;;;6224291;22;20014;-74
2022/08/14 11:44:52;;;;;;;1.30;1.20;;;32.20;45.90;;;;;;6276486;22;20003;-74
2022/08/14 11:47:19;;;;;;;1.30;1.20;;;32.30;45.80;;;;;;6249378;22;20054;-75
2022/08/14 11:49:46;;;;;;;1.08;1.08;;;32.10;45.60;;;;;;6248743;22;20011;-74
2022/08/14 11:52:14;;;;;;;1.15;1.05;;;32.10;45.60;;;;;;6249188;22;20094;-74
2022/08/14 11:54:41;;;;;;;1.20;1.10;;;32.20;45.60;;;;;;6250210;22;20401;-74
2022/08/14 11:57:22;;;;;;;1.23;1.13;;;32.20;45.50;;;;;;6273561;22;20004;-74
2022/08/14 11:59:58;;;;;;;1.25;1.15;;;32.30;45.40;;;;;;6247835;22;20038;-74
2022/08/14 12:02:24;;;;;;;1.67;1.10;;;32.30;45.30;;;;;;6246015;22;20023;-74
2022/08/14 12:04:52;;;;;;;1.17;1.10;;;32.30;45.30;;;;;;6276269;22;20011;-74
2022/08/14 12:07:19;;;;;;;1.15;1.13;;;32.30;45.30;;;;;;6276157;22;20019;-74
2022/08/14 12:09:50;;;;;;;1.30;1.15;;;32.30;45.20;;;;;;6248692;22;20047;-74
2022/08/14 12:12:18;;;;;;;1.40;1.27;;;32.30;45.10;;;;;;6248971;22;20424;-74
2022/08/14 12:14:52;;;;;;;0.90;0.90;;;32.40;45.70;;;;;;6276031;22;20008;-74
2022/08/14 12:17:18;;;;;;;1.23;1.13;;;32.40;45.00;;;;;;6249165;22;20008;-73
2022/08/14 12:19:48;;;;;;;1.27;1.17;;;32.50;45.00;;;;;;6248640;22;20019;-74
2022/08/14 12:22:14;;;;;;;1.10;1.10;;;32.50;44.80;;;;;;6276091;22;20018;-74
2022/08/14 12:24:43;;;;;;;1.30;1.20;;;32.50;44.80;;;;;;6276363;22;20011;-74
2022/08/14 12:27:11;;;;;;;1.20;1.10;;;32.50;44.70;;;;;;6276487;22;20058;-74
2022/08/14 12:29:41;;;;;;;1.35;1.25;;;32.50;44.70;;;;;;6248893;22;20343;-74
2022/08/14 12:32:07;;;;;;;1.40;1.30;;;32.60;44.80;;;;;;6276411;22;20008;-72
2022/08/14 12:34:35;;;;;;;1.30;1.20;;;32.40;44.70;;;;;;6248804;22;20012;-74
2022/08/14 12:37:04;;;;;;;1.35;1.25;;;32.30;44.90;;;;;;6276282;22;20057;-74
2022/08/14 12:39:32;;;;;;;1.10;1.10;;;32.10;45.00;;;;;;6276741;22;20466;-74
2022/08/14 12:42:05;;;;;;;1.00;1.00;;;32.10;45.20;;;;;;6245566;22;20061;-73
2022/08/14 12:44:36;;;;;;;1.40;1.30;;;32.10;45.00;;;;;;6250299;22;20012;-73
2022/08/14 12:47:06;;;;;;;1.17;1.08;;;32.10;45.00;;;;;;6222097;22;20041;-73
2022/08/14 12:49:32;;;;;;;;;;;32.10;44.90;;;;;;6247099;22;20069;-73
2022/08/14 12:52:01;;;;;;;0.98;0.98;;;32.20;44.80;;;;;;6274979;22;19989;-73
2022/08/14 12:54:28;;;;;;;1.30;1.20;;;32.20;44.80;;;;;;6276118;22;20488;-73
2022/08/14 12:57:06;;;;;;;1.33;1.17;;;32.20;44.60;;;;;;6249082;22;20007;-73
2022/08/14 12:59:34;;;;;;;1.30;1.20;;;32.20;44.60;;;;;;6275898;22;20126;-73
2022/08/14 13:02:00;;;;;;;1.23;1.13;;;32.10;44.70;;;;;;6272917;22;20012;-73
2022/08/14 13:04:30;;;;;;;1.30;1.20;;;32.00;44.80;;;;;;6276102;22;20014;-73
2022/08/14 13:07:03;;;;;;;1.20;1.10;;;32.00;44.80;;;;;;6275738;22;20095;-73
2022/08/14 13:09:29;;;;;;;1.27;1.17;;;32.00;44.70;;;;;;6248492;22;20378;-73